TJBQ

Details ICAO TJBQ (BQN)
Name Aguadilla/Rafael Hernandez
Region USA (Puerto Rico)
Timezone America/Puerto_Rico (UTC-4.0)
Plans Departing 85
Arriving 98
Stats Elevation 237 ft / 72 m (AMSL)
Location 18.494825° -67.129216°
Runways 1
Magnetic Variation 12.766° W
Sunrise 2018-06-21 09:54:20 UTC / 2018-06-21 05:54:20 Local
Sunset 2018-06-21 23:08:47 UTC / 2018-06-21 19:08:47 Local
Advertisement - Login to hide

Runways

ID Width Length Bearing (true) Bearing (mag) Surface Threshold Offset Overrun Length
08 200 ft / 61 m 11,724 ft / 3,574 m 72.33° 85.10° Asphalt 400 ft / 122 m 768 ft / 234 m
26 200 ft / 61 m 11,724 ft / 3,574 m 252.34° 265.11° Asphalt 0 ft / 0 m 151 ft / 46 m

Map

Weather


0- 5 10 15 20 25 30 35+ Temperature / ° C

Clouds and Precipitation
Forecast for 2018-06-22 00:00 UTC. Updated 5 hours ago

Ground ~20,000 ft ~40,000 ft Winds

METAR

Not found

TAF

TAF TJBQ 212336Z 2200/2224 07010KT P6SM SCT025 BKN050 FM221300 09017KT P6SM FEW025 FM221600 07017G25KT P6SM -SHRA VCTS SCT030CB SCT060 BKN090

Frequencies

Recorded 118.32 MHz ATIS
Clearance 120.87 MHz CLEARANCE DEL.
Tower 124.95 MHz TWR/CTAF
Approach 135.70 MHz SAN JUAN CNTR
Unicom 123.00 MHz UNICOM
Ground 120.87 MHz GROUND
Approach 118.15 MHz SAN JUAN CNTR
Warning: Do not use this data for real-world aviation or navigation. No guarantee of current accuracy is given.